createdAt,value
2017-10-24T00:00:35.581Z,0.00
2017-10-24T00:01:35.530Z,0.00
2017-10-24T00:02:56.519Z,0.00
2017-10-24T00:03:35.502Z,0.00
2017-10-24T00:04:35.474Z,0.00
2017-10-24T00:05:35.447Z,0.00
2017-10-24T00:06:35.431Z,0.00
2017-10-24T00:07:35.415Z,0.00
2017-10-24T00:08:56.395Z,0.00
2017-10-24T00:09:35.374Z,0.00
2017-10-24T00:10:35.366Z,0.00
2017-10-24T00:11:35.322Z,0.00
2017-10-24T00:12:35.295Z,0.00
2017-10-24T00:13:35.293Z,0.00
2017-10-24T00:14:56.274Z,0.00
2017-10-24T00:15:35.240Z,0.00
2017-10-24T00:16:35.228Z,0.00
2017-10-24T00:17:35.234Z,0.00
2017-10-24T00:18:35.202Z,0.00
2017-10-24T00:19:35.161Z,0.00
2017-10-24T00:20:56.134Z,0.00
2017-10-24T00:21:35.124Z,0.00
2017-10-24T00:22:35.098Z,0.00
2017-10-24T00:23:35.086Z,0.00
2017-10-24T00:24:35.045Z,0.00
2017-10-24T00:25:35.042Z,0.00
2017-10-24T00:26:56.016Z,0.00
2017-10-24T00:27:35.013Z,0.00
2017-10-24T00:28:34.966Z,0.00
2017-10-24T00:29:34.946Z,0.00
2017-10-24T00:30:34.937Z,0.00
2017-10-24T00:31:34.951Z,0.00
2017-10-24T00:32:55.899Z,0.00
2017-10-24T00:33:34.883Z,0.00
2017-10-24T00:34:34.852Z,0.00
2017-10-24T00:35:34.887Z,0.00
2017-10-24T00:36:34.803Z,0.00
2017-10-24T00:37:34.814Z,0.00
2017-10-24T00:38:55.793Z,0.00
2017-10-24T00:39:34.735Z,0.00
2017-10-24T00:40:34.758Z,0.00
2017-10-24T00:41:34.709Z,0.00
2017-10-24T00:42:34.679Z,0.00
2017-10-24T00:43:34.662Z,0.00
2017-10-24T00:44:55.693Z,0.00
2017-10-24T00:45:34.621Z,0.00
2017-10-24T00:46:34.600Z,0.00
2017-10-24T00:47:34.579Z,0.00
2017-10-24T00:48:34.560Z,0.00
2017-10-24T00:49:34.537Z,0.00
2017-10-24T00:50:55.521Z,0.00
2017-10-24T00:51:34.534Z,0.00
2017-10-24T00:52:34.463Z,0.00
2017-10-24T00:53:34.523Z,0.00
2017-10-24T00:54:34.421Z,0.00
2017-10-24T00:55:34.424Z,0.00
2017-10-24T00:56:55.384Z,0.00
2017-10-24T00:57:34.372Z,0.00
2017-10-24T00:58:34.355Z,0.00
2017-10-24T00:59:34.339Z,0.00
2017-10-24T01:00:34.315Z,0.00
2017-10-24T01:01:34.277Z,0.00
2017-10-24T01:02:55.267Z,0.00
2017-10-24T01:03:34.233Z,0.00
2017-10-24T01:04:34.214Z,0.00
2017-10-24T01:05:34.203Z,0.00
2017-10-24T01:06:34.183Z,0.00
2017-10-24T01:07:34.160Z,0.00
2017-10-24T01:08:55.126Z,0.00
2017-10-24T01:09:34.110Z,0.00
2017-10-24T01:10:34.125Z,0.00
2017-10-24T01:11:34.058Z,0.00
2017-10-24T01:12:34.046Z,0.00
2017-10-24T01:13:34.047Z,0.00
2017-10-24T01:14:55.021Z,0.00
2017-10-24T01:15:33.993Z,0.00
2017-10-24T01:16:33.964Z,0.00
2017-10-24T01:17:33.993Z,0.00
2017-10-24T01:18:33.950Z,0.00
2017-10-24T01:19:33.940Z,0.00
2017-10-24T01:20:54.928Z,0.00
2017-10-24T01:21:33.873Z,0.00
2017-10-24T01:22:33.841Z,0.00
2017-10-24T01:23:33.811Z,0.00
2017-10-24T01:24:33.799Z,0.00
2017-10-24T01:25:33.866Z,0.00
2017-10-24T01:26:54.765Z,0.00
2017-10-24T01:27:33.739Z,0.00
2017-10-24T01:28:33.750Z,0.00
2017-10-24T01:29:33.690Z,0.00
2017-10-24T01:30:33.682Z,0.00
2017-10-24T01:31:33.653Z,0.00
2017-10-24T01:32:54.698Z,0.00
2017-10-24T01:33:33.609Z,0.00
2017-10-24T01:34:33.596Z,0.00
2017-10-24T01:35:33.586Z,0.00
2017-10-24T01:36:33.551Z,0.00
2017-10-24T01:37:33.523Z,0.00
2017-10-24T01:38:54.500Z,0.00
2017-10-24T01:39:33.474Z,0.00
2017-10-24T01:40:33.470Z,0.00
2017-10-24T01:41:33.430Z,0.00
2017-10-24T01:42:33.445Z,0.00
2017-10-24T01:43:33.395Z,0.00
2017-10-24T01:44:54.377Z,0.00
2017-10-24T01:45:33.351Z,0.00
2017-10-24T01:46:33.327Z,0.00
2017-10-24T01:47:33.353Z,0.00
2017-10-24T01:48:33.281Z,0.00
2017-10-24T01:49:33.257Z,0.00
2017-10-24T01:50:54.244Z,0.00
2017-10-24T01:51:33.227Z,0.00
2017-10-24T01:52:33.198Z,0.00
2017-10-24T01:53:33.173Z,0.00
2017-10-24T01:54:33.162Z,0.00
2017-10-24T01:55:33.145Z,0.00
2017-10-24T01:56:54.125Z,0.00
2017-10-24T01:57:33.098Z,0.00
2017-10-24T01:58:33.114Z,0.00
2017-10-24T01:59:33.061Z,0.00
2017-10-24T02:00:33.028Z,0.00
2017-10-24T02:01:33.009Z,0.00
2017-10-24T02:02:53.978Z,0.00
2017-10-24T02:03:32.965Z,0.00
2017-10-24T02:04:32.932Z,0.00
2017-10-24T02:05:32.924Z,0.00
2017-10-24T02:06:32.900Z,0.00
2017-10-24T02:07:32.889Z,0.00
2017-10-24T02:08:53.850Z,0.00
2017-10-24T02:09:32.844Z,0.00
2017-10-24T02:10:32.814Z,0.00
2017-10-24T02:11:32.795Z,0.00
2017-10-24T02:12:32.772Z,0.00
2017-10-24T02:13:32.787Z,0.00
2017-10-24T02:14:53.721Z,0.00
2017-10-24T02:15:32.718Z,0.00
2017-10-24T02:16:32.685Z,0.00
2017-10-24T02:17:32.675Z,0.00
2017-10-24T02:18:32.643Z,0.00
2017-10-24T02:19:32.614Z,0.00
2017-10-24T02:20:53.596Z,0.00
2017-10-24T02:21:32.582Z,0.00
2017-10-24T02:22:32.624Z,0.00
2017-10-24T02:23:32.533Z,0.00
2017-10-24T02:24:32.501Z,0.00
2017-10-24T02:25:32.490Z,0.00
2017-10-24T02:26:53.484Z,0.00
2017-10-24T02:27:32.538Z,0.00
2017-10-24T02:28:32.424Z,0.00
2017-10-24T02:29:32.402Z,0.00
2017-10-24T02:30:32.385Z,0.00
2017-10-24T02:31:32.363Z,0.00
2017-10-24T02:32:53.336Z,0.00
2017-10-24T02:33:32.323Z,0.00
2017-10-24T02:34:32.291Z,0.00
2017-10-24T02:35:32.290Z,0.00
2017-10-24T02:36:32.249Z,0.00
2017-10-24T02:37:32.223Z,0.00
2017-10-24T02:38:53.271Z,0.00
2017-10-24T02:39:32.185Z,0.00
2017-10-24T02:40:32.163Z,0.00
2017-10-24T02:41:32.145Z,0.00
2017-10-24T02:42:32.112Z,0.00
2017-10-24T02:43:32.108Z,0.00
2017-10-24T02:44:53.079Z,0.00
2017-10-24T02:45:32.126Z,0.00
2017-10-24T02:46:32.037Z,0.00
2017-10-24T02:47:32.010Z,0.00
2017-10-24T02:48:31.988Z,0.00
2017-10-24T02:49:32.009Z,0.00
2017-10-24T02:50:52.949Z,0.00
2017-10-24T02:51:31.919Z,0.00
2017-10-24T02:52:31.921Z,0.00
2017-10-24T02:53:31.870Z,0.00
2017-10-24T02:54:31.872Z,0.00
2017-10-24T02:55:31.834Z,0.00
2017-10-24T02:56:52.843Z,0.00
2017-10-24T02:57:31.782Z,0.00
2017-10-24T02:58:31.759Z,0.00
2017-10-24T02:59:31.738Z,0.00
2017-10-24T03:00:31.723Z,0.00
2017-10-24T03:01:31.718Z,0.00
2017-10-24T03:02:52.682Z,0.00
2017-10-24T03:03:31.664Z,0.00
2017-10-24T03:04:31.660Z,0.00
2017-10-24T03:05:31.617Z,0.00
2017-10-24T03:06:31.588Z,0.00
2017-10-24T03:07:31.576Z,0.00
2017-10-24T03:08:52.551Z,0.00
2017-10-24T03:09:31.521Z,0.00
2017-10-24T03:10:31.500Z,0.00
2017-10-24T03:11:31.484Z,0.00
2017-10-24T03:12:31.510Z,0.00
2017-10-24T03:13:31.450Z,0.00
2017-10-24T03:14:52.420Z,0.00
2017-10-24T03:15:31.394Z,0.00
2017-10-24T03:16:31.379Z,0.00
2017-10-24T03:17:31.361Z,0.00
2017-10-24T03:18:31.384Z,0.00
2017-10-24T03:19:31.303Z,0.00
2017-10-24T03:20:52.297Z,0.00
2017-10-24T03:21:31.263Z,0.00
2017-10-24T03:22:31.241Z,0.00
2017-10-24T03:23:31.244Z,0.00
2017-10-24T03:24:31.227Z,0.00
2017-10-24T03:25:36.209Z,0.00
2017-10-24T03:26:52.189Z,0.00
2017-10-24T03:27:31.157Z,0.00
2017-10-24T03:28:31.139Z,0.00
2017-10-24T03:29:31.109Z,0.00
2017-10-24T03:30:31.084Z,0.00
2017-10-24T03:31:31.063Z,0.00
2017-10-24T03:32:52.079Z,0.00
2017-10-24T03:33:31.010Z,0.00
2017-10-24T03:34:30.986Z,0.00
2017-10-24T03:35:30.971Z,0.00
2017-10-24T03:36:30.957Z,0.00
2017-10-24T03:37:30.945Z,0.00
2017-10-24T03:38:51.917Z,0.00
2017-10-24T03:39:30.881Z,0.00
2017-10-24T03:40:30.861Z,0.00
2017-10-24T03:41:30.828Z,0.00
2017-10-24T03:42:30.861Z,0.00
2017-10-24T03:43:30.815Z,0.00
2017-10-24T03:44:51.780Z,0.00
2017-10-24T03:45:30.746Z,0.00
2017-10-24T03:46:30.734Z,0.00
2017-10-24T03:47:30.842Z,0.00
2017-10-24T03:48:30.689Z,0.00
2017-10-24T03:49:30.697Z,0.00
2017-10-24T03:50:51.644Z,0.00
2017-10-24T03:51:30.642Z,0.00
2017-10-24T03:52:30.621Z,0.00
2017-10-24T03:53:30.608Z,0.00
2017-10-24T03:54:30.575Z,0.00
2017-10-24T03:55:30.556Z,0.00
2017-10-24T03:56:51.529Z,0.00
2017-10-24T03:57:30.500Z,0.00
2017-10-24T03:58:30.487Z,0.00
2017-10-24T03:59:30.465Z,0.00
2017-10-24T04:00:30.439Z,0.00
2017-10-24T04:01:31.374Z,0.00
2017-10-24T04:02:52.402Z,0.00
2017-10-24T04:03:30.445Z,0.00
2017-10-24T04:04:30.351Z,0.00
2017-10-24T04:05:30.332Z,0.00
2017-10-24T04:06:30.311Z,0.00
2017-10-24T04:07:30.319Z,0.00
2017-10-24T04:08:51.266Z,0.00
2017-10-24T04:09:30.251Z,0.00
2017-10-24T04:10:30.212Z,0.00
2017-10-24T04:11:30.200Z,0.00
2017-10-24T04:12:30.169Z,0.00
2017-10-24T04:13:30.205Z,0.00
2017-10-24T04:14:51.131Z,0.00
2017-10-24T04:15:30.108Z,0.00
2017-10-24T04:16:30.089Z,0.00
2017-10-24T04:17:30.073Z,0.00
2017-10-24T04:18:30.047Z,0.00
2017-10-24T04:19:30.034Z,0.00
2017-10-24T04:20:51.010Z,0.00
2017-10-24T04:21:30.011Z,0.00
2017-10-24T04:22:29.982Z,0.00
2017-10-24T04:23:29.954Z,0.00
2017-10-24T04:24:29.948Z,0.00
2017-10-24T04:25:30.025Z,0.00
2017-10-24T04:26:50.884Z,0.00
2017-10-24T04:27:29.884Z,0.00
2017-10-24T04:28:29.843Z,0.00
2017-10-24T04:29:29.825Z,0.00
2017-10-24T04:30:29.796Z,0.00
2017-10-24T04:31:29.788Z,0.00
2017-10-24T04:32:50.766Z,0.00
2017-10-24T04:33:29.728Z,0.00
2017-10-24T04:34:29.737Z,0.00
2017-10-24T04:35:29.765Z,0.00
2017-10-24T04:36:29.711Z,0.00
2017-10-24T04:37:29.652Z,0.00
2017-10-24T04:38:50.652Z,0.00
2017-10-24T04:39:29.626Z,0.00
2017-10-24T04:40:29.591Z,0.00
2017-10-24T04:41:29.569Z,0.00
2017-10-24T04:42:29.556Z,0.00
2017-10-24T04:43:29.517Z,0.00
2017-10-24T04:44:50.521Z,0.00
2017-10-24T04:45:29.482Z,0.00
2017-10-24T04:46:29.467Z,0.00
2017-10-24T04:47:29.441Z,0.00
2017-10-24T04:48:29.416Z,0.00
2017-10-24T04:49:29.399Z,0.00
2017-10-24T04:50:50.372Z,0.00
2017-10-24T04:51:29.357Z,0.00
2017-10-24T04:52:29.337Z,0.00
2017-10-24T04:53:29.319Z,0.00
2017-10-24T04:54:29.300Z,0.00
2017-10-24T04:55:29.293Z,0.00
2017-10-24T04:56:50.261Z,0.00
2017-10-24T04:57:29.233Z,0.00
2017-10-24T04:58:29.254Z,0.00
2017-10-24T04:59:29.191Z,0.00
2017-10-24T05:00:29.165Z,0.00
2017-10-24T05:01:29.150Z,0.00
2017-10-24T05:02:50.146Z,0.00
2017-10-24T05:03:29.110Z,0.00
2017-10-24T05:04:29.078Z,0.00
2017-10-24T05:05:29.071Z,0.00
2017-10-24T05:06:29.040Z,0.00
2017-10-24T05:07:29.029Z,0.00
2017-10-24T05:08:49.997Z,0.00
2017-10-24T05:09:28.985Z,0.00
2017-10-24T05:10:28.965Z,0.00
2017-10-24T05:11:28.940Z,0.00
2017-10-24T05:12:28.914Z,0.00
2017-10-24T05:13:28.916Z,0.00
2017-10-24T05:14:49.889Z,0.00
2017-10-24T05:15:28.868Z,0.00
2017-10-24T05:16:28.825Z,0.00
2017-10-24T05:17:28.812Z,0.00
2017-10-24T05:18:28.792Z,0.00
2017-10-24T05:19:28.774Z,0.00
2017-10-24T05:20:49.756Z,0.00
2017-10-24T05:21:28.745Z,0.00
2017-10-24T05:22:28.717Z,0.00
2017-10-24T05:23:28.696Z,0.00
2017-10-24T05:24:28.684Z,0.00
2017-10-24T05:25:28.662Z,0.00
2017-10-24T05:26:49.621Z,0.00
2017-10-24T05:27:28.609Z,0.00
2017-10-24T05:28:28.591Z,0.00
2017-10-24T05:29:28.560Z,0.00
2017-10-24T05:30:28.536Z,0.00
2017-10-24T05:31:28.531Z,0.00
2017-10-24T05:32:49.500Z,0.00
2017-10-24T05:33:28.478Z,4.00
2017-10-24T05:34:28.464Z,0.00
2017-10-24T05:35:28.434Z,0.00
2017-10-24T05:36:28.420Z,4.00
2017-10-24T05:37:28.401Z,4.00
2017-10-24T05:38:49.372Z,4.00
2017-10-24T05:39:28.361Z,4.00
2017-10-24T05:40:28.336Z,4.00
2017-10-24T05:41:28.322Z,4.00
2017-10-24T05:42:28.289Z,8.00
2017-10-24T05:43:28.273Z,4.00
2017-10-24T05:44:49.267Z,8.00
2017-10-24T05:45:28.220Z,12.00
2017-10-24T05:46:28.201Z,12.00
2017-10-24T05:47:28.184Z,12.00
2017-10-24T05:48:28.164Z,16.00
2017-10-24T05:49:28.149Z,16.00
2017-10-24T05:50:49.141Z,16.00
2017-10-24T05:51:28.108Z,24.00
2017-10-24T05:52:28.098Z,24.00
2017-10-24T05:53:28.060Z,32.00
2017-10-24T05:54:28.033Z,40.00
2017-10-24T05:55:28.029Z,48.00
2017-10-24T05:56:48.998Z,52.00
2017-10-24T05:57:28.075Z,60.00
2017-10-24T05:58:28.002Z,56.00
2017-10-24T05:59:27.968Z,56.00
2017-10-24T06:00:27.929Z,60.00
2017-10-24T06:01:27.898Z,60.00
2017-10-24T06:02:48.884Z,72.00
2017-10-24T06:03:27.866Z,72.00
2017-10-24T06:04:27.836Z,80.00
2017-10-24T06:05:27.846Z,84.00
2017-10-24T06:06:27.808Z,88.00
2017-10-24T06:07:27.792Z,88.00
2017-10-24T06:08:48.763Z,80.00
2017-10-24T06:09:27.734Z,76.00
2017-10-24T06:10:27.739Z,72.00
2017-10-24T06:11:27.709Z,80.00
2017-10-24T06:12:27.685Z,100.00
2017-10-24T06:13:27.646Z,100.00
2017-10-24T06:14:48.634Z,104.00
2017-10-24T06:15:27.607Z,112.00
2017-10-24T06:16:27.583Z,120.00
2017-10-24T06:17:27.566Z,120.00
2017-10-24T06:18:27.544Z,120.00
2017-10-24T06:19:27.545Z,128.00
2017-10-24T06:20:48.510Z,140.00
2017-10-24T06:21:27.489Z,156.00
2017-10-24T06:22:27.491Z,164.00
2017-10-24T06:23:27.458Z,172.00
2017-10-24T06:24:27.444Z,164.00
2017-10-24T06:25:27.397Z,176.00
2017-10-24T06:26:48.379Z,184.00
2017-10-24T06:27:27.379Z,200.00
2017-10-24T06:28:27.384Z,220.00
2017-10-24T06:29:27.315Z,232.00
2017-10-24T06:30:27.928Z,240.00
2017-10-24T06:31:27.290Z,240.00
2017-10-24T06:32:48.255Z,264.00
2017-10-24T06:33:27.241Z,288.00
2017-10-24T06:34:27.237Z,292.00
2017-10-24T06:35:27.199Z,304.00
2017-10-24T06:36:27.195Z,300.00
2017-10-24T06:37:27.168Z,296.00
2017-10-24T06:38:48.163Z,292.00
2017-10-24T06:39:27.160Z,300.00
2017-10-24T06:40:27.116Z,300.00
2017-10-24T06:41:27.100Z,292.00
2017-10-24T06:42:27.093Z,300.00
2017-10-24T06:43:27.078Z,304.00
2017-10-24T06:44:48.035Z,296.00
2017-10-24T06:45:27.003Z,292.00
2017-10-24T06:46:26.976Z,280.00
2017-10-24T06:47:26.973Z,276.00
2017-10-24T06:48:26.944Z,284.00
2017-10-24T06:49:26.936Z,292.00
2017-10-24T06:50:47.888Z,284.00
2017-10-24T06:51:26.894Z,272.00
2017-10-24T06:52:26.899Z,268.00
2017-10-24T06:53:26.861Z,268.00
2017-10-24T06:54:26.849Z,276.00
2017-10-24T06:55:26.792Z,276.00
2017-10-24T06:56:47.836Z,276.00
2017-10-24T06:57:26.767Z,288.00
2017-10-24T06:58:26.760Z,304.00
2017-10-24T06:59:27.453Z,324.00
2017-10-24T07:00:26.688Z,340.00
2017-10-24T07:01:26.668Z,360.00
2017-10-24T07:02:47.662Z,368.00
2017-10-24T07:03:26.646Z,368.00
2017-10-24T07:04:26.613Z,388.00
2017-10-24T07:05:26.601Z,416.00
2017-10-24T07:06:26.636Z,460.00
2017-10-24T07:07:26.535Z,472.00
2017-10-24T07:08:47.567Z,492.00
2017-10-24T07:09:26.541Z,496.00
2017-10-24T07:10:26.510Z,500.00
2017-10-24T07:11:26.467Z,520.00
2017-10-24T07:12:26.453Z,532.00
2017-10-24T07:13:26.432Z,548.00
2017-10-24T07:14:47.407Z,588.00
2017-10-24T07:15:26.391Z,596.00
2017-10-24T07:16:26.364Z,616.00
2017-10-24T07:17:26.356Z,648.00
2017-10-24T07:18:26.322Z,688.00
2017-10-24T07:19:26.291Z,736.00
2017-10-24T07:20:47.278Z,812.00
2017-10-24T07:21:26.296Z,920.00
2017-10-24T07:22:26.237Z,924.00
2017-10-24T07:23:26.249Z,960.00
2017-10-24T07:24:26.228Z,1040.00
2017-10-24T07:25:26.170Z,1128.00
2017-10-24T07:26:47.162Z,1236.00
2017-10-24T07:27:26.137Z,1400.00
2017-10-24T07:28:26.118Z,1492.00
2017-10-24T07:29:26.113Z,1452.00
2017-10-24T07:30:26.109Z,1388.00
2017-10-24T07:31:26.054Z,1384.00
2017-10-24T07:32:47.061Z,1380.00
2017-10-24T07:33:26.032Z,1416.00
2017-10-24T07:34:26.004Z,1512.00
2017-10-24T07:35:25.978Z,1468.00
2017-10-24T07:36:25.958Z,1428.00
2017-10-24T07:37:25.937Z,1408.00
2017-10-24T07:38:46.912Z,1448.00
2017-10-24T07:39:25.910Z,1500.00
2017-10-24T07:40:25.878Z,1648.00
2017-10-24T07:41:25.851Z,1620.00
2017-10-24T07:42:25.862Z,1472.00
2017-10-24T07:43:25.836Z,1504.00
2017-10-24T07:44:46.794Z,1484.00
2017-10-24T07:45:25.778Z,1444.00
2017-10-24T07:46:25.753Z,1404.00
2017-10-24T07:47:25.743Z,1440.00
2017-10-24T07:48:25.733Z,1532.00
2017-10-24T07:49:25.683Z,1504.00
2017-10-24T07:50:46.677Z,1536.00
2017-10-24T07:51:25.697Z,1376.00
2017-10-24T07:52:25.660Z,1140.00
2017-10-24T07:53:25.655Z,1064.00
2017-10-24T07:54:25.601Z,1140.00
2017-10-24T07:55:25.589Z,1076.00
2017-10-24T07:56:46.566Z,1052.00
2017-10-24T07:57:25.529Z,1020.00
2017-10-24T07:58:25.539Z,964.00
2017-10-24T07:59:25.525Z,1072.00
2017-10-24T08:00:25.479Z,1164.00
2017-10-24T08:01:25.484Z,1024.00
2017-10-24T08:02:46.475Z,1028.00
2017-10-24T08:03:25.404Z,988.00
2017-10-24T08:04:25.387Z,964.00
2017-10-24T08:05:25.399Z,992.00
2017-10-24T08:06:25.389Z,1044.00
2017-10-24T08:07:25.356Z,984.00
2017-10-24T08:08:46.312Z,968.00
2017-10-24T08:09:25.306Z,1080.00
2017-10-24T08:10:25.282Z,940.00
2017-10-24T08:11:25.265Z,928.00
2017-10-24T08:12:25.263Z,880.00
2017-10-24T08:13:25.213Z,784.00
2017-10-24T08:14:46.229Z,820.00
2017-10-24T08:15:25.179Z,948.00
2017-10-24T08:16:25.161Z,908.00
2017-10-24T08:17:25.153Z,952.00
2017-10-24T08:18:25.140Z,916.00
2017-10-24T08:19:25.108Z,948.00
2017-10-24T08:20:46.132Z,940.00
2017-10-24T08:21:25.069Z,868.00
2017-10-24T08:22:25.098Z,868.00
2017-10-24T08:23:25.011Z,872.00
2017-10-24T08:24:25.013Z,816.00
2017-10-24T08:25:24.997Z,860.00
2017-10-24T08:26:45.976Z,904.00
2017-10-24T08:27:24.960Z,952.00
2017-10-24T08:28:24.929Z,1000.00
2017-10-24T08:29:24.924Z,996.00
2017-10-24T08:30:24.881Z,980.00
2017-10-24T08:31:24.873Z,964.00
2017-10-24T08:32:45.859Z,1016.00
2017-10-24T08:33:24.825Z,1028.00
2017-10-24T08:34:24.819Z,1012.00
2017-10-24T08:35:24.781Z,1076.00
2017-10-24T08:36:24.752Z,1140.00
2017-10-24T08:37:24.765Z,1224.00
2017-10-24T08:38:45.744Z,1212.00
2017-10-24T08:39:24.728Z,1188.00
2017-10-24T08:40:24.685Z,1168.00
2017-10-24T08:41:24.662Z,1220.00
2017-10-24T08:42:24.653Z,1280.00
2017-10-24T08:43:24.629Z,1360.00
2017-10-24T08:44:45.605Z,1416.00
2017-10-24T08:45:24.614Z,1436.00
2017-10-24T08:46:24.573Z,1416.00
2017-10-24T08:47:24.550Z,1248.00
2017-10-24T08:48:24.531Z,1168.00
2017-10-24T08:49:24.496Z,1208.00
2017-10-24T08:50:45.505Z,1184.00
2017-10-24T08:51:24.466Z,1152.00
2017-10-24T08:52:24.435Z,1092.00
2017-10-24T08:53:24.440Z,1128.00
2017-10-24T08:54:24.402Z,1240.00
2017-10-24T08:55:24.379Z,1248.00
2017-10-24T08:56:45.373Z,1308.00
2017-10-24T08:57:24.352Z,1428.00
2017-10-24T08:58:24.321Z,1700.00
2017-10-24T08:59:24.312Z,1688.00
2017-10-24T09:00:24.303Z,1648.00
2017-10-24T09:01:24.287Z,1592.00
2017-10-24T09:02:45.248Z,1508.00
2017-10-24T09:03:24.242Z,1644.00
2017-10-24T09:04:24.202Z,1596.00
2017-10-24T09:05:24.206Z,1472.00
2017-10-24T09:06:24.168Z,1508.00
2017-10-24T09:07:24.145Z,1688.00
2017-10-24T09:08:45.122Z,1560.00
2017-10-24T09:09:24.099Z,1464.00
2017-10-24T09:10:24.106Z,1352.00
2017-10-24T09:11:27.314Z,1404.00
2017-10-24T09:12:24.035Z,1364.00
2017-10-24T09:13:24.026Z,1404.00
2017-10-24T09:14:45.023Z,1348.00
2017-10-24T09:15:23.976Z,1252.00
2017-10-24T09:16:23.957Z,1260.00
2017-10-24T09:17:23.929Z,1420.00
2017-10-24T09:18:23.920Z,1556.00
2017-10-24T09:19:23.900Z,1684.00
2017-10-24T09:20:44.912Z,1744.00
2017-10-24T09:21:23.885Z,1600.00
2017-10-24T09:22:23.868Z,1452.00
2017-10-24T09:23:23.830Z,1448.00
2017-10-24T09:24:23.814Z,1460.00
2017-10-24T09:25:23.798Z,1496.00
2017-10-24T09:26:44.765Z,1468.00
2017-10-24T09:27:23.741Z,1444.00
2017-10-24T09:28:23.728Z,1576.00
2017-10-24T09:29:23.784Z,1776.00
2017-10-24T09:30:23.679Z,1804.00
2017-10-24T09:31:23.745Z,1920.00
2017-10-24T09:32:44.647Z,2088.00
2017-10-24T09:33:23.623Z,2180.00
2017-10-24T09:34:23.609Z,2208.00
2017-10-24T09:35:23.607Z,2152.00
2017-10-24T09:36:23.569Z,1932.00
2017-10-24T09:37:23.540Z,2040.00
2017-10-24T09:38:44.532Z,1992.00
2017-10-24T09:39:23.509Z,1844.00
2017-10-24T09:40:23.504Z,1616.00
2017-10-24T09:41:23.449Z,1680.00
2017-10-24T09:42:23.446Z,1732.00
2017-10-24T09:43:23.437Z,1812.00
2017-10-24T09:44:44.402Z,1816.00
2017-10-24T09:45:23.401Z,1736.00
2017-10-24T09:46:23.361Z,1868.00
2017-10-24T09:47:23.349Z,1896.00
2017-10-24T09:48:23.326Z,1728.00
2017-10-24T09:49:23.331Z,1536.00
2017-10-24T09:50:44.275Z,1528.00
2017-10-24T09:51:23.260Z,1616.00
2017-10-24T09:52:23.235Z,1664.00
2017-10-24T09:53:23.223Z,1648.00
2017-10-24T09:54:23.223Z,1624.00
2017-10-24T09:55:23.191Z,1528.00
2017-10-24T09:56:44.167Z,1564.00
2017-10-24T09:57:23.139Z,1620.00
2017-10-24T09:58:23.122Z,1640.00
2017-10-24T09:59:23.103Z,1744.00
2017-10-24T10:00:23.094Z,1844.00
2017-10-24T10:01:23.057Z,1876.00
2017-10-24T10:02:44.048Z,1832.00
2017-10-24T10:03:23.036Z,1848.00
2017-10-24T10:04:23.006Z,1920.00
2017-10-24T10:05:23.050Z,2132.00
2017-10-24T10:06:22.986Z,2008.00
2017-10-24T10:07:22.964Z,1980.00
2017-10-24T10:08:43.945Z,2020.00
2017-10-24T10:09:22.915Z,1980.00
2017-10-24T10:10:22.894Z,2048.00
2017-10-24T10:11:22.910Z,2180.00
2017-10-24T10:12:22.840Z,2296.00
2017-10-24T10:13:22.859Z,2436.00
2017-10-24T10:14:43.814Z,2324.00
2017-10-24T10:15:22.845Z,2608.00
2017-10-24T10:16:22.800Z,2640.00
2017-10-24T10:17:22.756Z,2560.00
2017-10-24T10:18:22.769Z,2836.00
2017-10-24T10:19:22.797Z,2684.00
2017-10-24T10:20:43.711Z,2624.00
2017-10-24T10:21:22.754Z,2788.00
2017-10-24T10:22:22.703Z,2792.00
2017-10-24T10:23:22.639Z,2628.00
2017-10-24T10:24:22.683Z,2528.00
2017-10-24T10:25:22.663Z,2484.00
2017-10-24T10:26:44.081Z,2400.00
2017-10-24T10:27:22.949Z,2280.00
2017-10-24T10:28:22.591Z,2232.00
2017-10-24T10:29:22.542Z,2252.00
2017-10-24T10:30:22.536Z,2356.00
2017-10-24T10:31:22.633Z,2368.00
2017-10-24T10:32:43.496Z,2364.00
2017-10-24T10:33:22.585Z,2396.00
2017-10-24T10:34:23.027Z,2408.00
2017-10-24T10:35:22.455Z,2212.00
2017-10-24T10:36:22.397Z,2160.00
2017-10-24T10:37:22.347Z,2376.00
2017-10-24T10:38:43.333Z,2384.00
2017-10-24T10:39:22.284Z,2284.00
2017-10-24T10:40:22.280Z,2588.00
2017-10-24T10:41:22.254Z,2944.00
2017-10-24T10:42:22.223Z,2832.00
2017-10-24T10:43:22.213Z,3308.00
2017-10-24T10:44:43.187Z,3212.00
2017-10-24T10:45:22.173Z,2804.00
2017-10-24T10:46:22.176Z,2912.00
2017-10-24T10:47:22.125Z,2620.00
2017-10-24T10:48:22.100Z,2512.00
2017-10-24T10:49:22.137Z,2376.00
2017-10-24T10:50:43.081Z,2212.00
2017-10-24T10:51:22.057Z,2004.00
2017-10-24T10:52:22.097Z,1996.00
2017-10-24T10:53:22.010Z,2236.00
2017-10-24T10:54:21.993Z,2104.00
2017-10-24T10:55:21.972Z,2272.00
2017-10-24T10:56:42.959Z,2296.00
2017-10-24T10:57:21.952Z,2236.00
2017-10-24T10:58:21.912Z,2340.00
2017-10-24T10:59:21.901Z,2500.00
2017-10-24T11:00:21.892Z,2264.00
2017-10-24T11:01:21.851Z,2120.00
2017-10-24T11:02:42.826Z,2152.00
2017-10-24T11:03:21.815Z,2412.00
2017-10-24T11:04:21.792Z,2308.00
2017-10-24T11:05:21.774Z,2176.00
2017-10-24T11:06:21.757Z,2792.00
2017-10-24T11:07:21.739Z,3216.00
2017-10-24T11:08:42.718Z,3784.00
2017-10-24T11:09:21.690Z,4084.00
2017-10-24T11:10:21.688Z,3380.00
2017-10-24T11:11:21.732Z,3164.00
2017-10-24T11:12:21.660Z,3272.00
2017-10-24T11:13:21.617Z,3004.00
2017-10-24T11:14:42.603Z,2796.00
2017-10-24T11:15:21.584Z,2152.00
2017-10-24T11:16:21.558Z,2116.00
2017-10-24T11:17:21.547Z,2252.00
2017-10-24T11:18:21.517Z,2408.00
2017-10-24T11:19:21.509Z,2492.00
2017-10-24T11:20:42.485Z,2460.00
2017-10-24T11:21:21.458Z,2328.00
2017-10-24T11:22:21.443Z,2156.00
2017-10-24T11:23:21.429Z,2124.00
2017-10-24T11:24:21.398Z,2200.00
2017-10-24T11:25:21.391Z,2164.00
2017-10-24T11:26:42.384Z,2028.00
2017-10-24T11:27:21.345Z,1988.00
2017-10-24T11:28:21.320Z,1976.00
2017-10-24T11:29:21.317Z,1936.00
2017-10-24T11:30:21.287Z,2076.00
2017-10-24T11:31:21.266Z,2036.00
2017-10-24T11:32:42.310Z,1996.00
2017-10-24T11:33:21.249Z,2076.00
2017-10-24T11:34:21.210Z,2164.00
2017-10-24T11:35:21.184Z,2356.00
2017-10-24T11:36:21.165Z,2368.00
2017-10-24T11:37:21.158Z,2484.00
2017-10-24T11:38:42.136Z,2812.00
2017-10-24T11:39:21.111Z,3172.00
2017-10-24T11:40:21.092Z,3144.00
2017-10-24T11:41:21.082Z,3104.00
2017-10-24T11:42:21.062Z,3180.00
2017-10-24T11:43:21.040Z,3020.00
2017-10-24T11:44:42.010Z,3204.00
2017-10-24T11:45:20.998Z,3084.00
2017-10-24T11:46:20.987Z,2868.00
2017-10-24T11:47:20.987Z,2876.00
2017-10-24T11:48:20.945Z,2828.00
2017-10-24T11:49:20.972Z,2760.00
2017-10-24T11:50:41.942Z,2656.00
2017-10-24T11:51:20.915Z,2768.00
2017-10-24T11:52:20.906Z,2800.00
2017-10-24T11:53:20.853Z,3108.00
2017-10-24T11:54:20.844Z,3776.00
2017-10-24T11:55:20.845Z,4436.00
2017-10-24T11:56:41.832Z,4648.00
2017-10-24T11:57:20.781Z,4428.00
2017-10-24T11:58:20.759Z,4156.00
2017-10-24T11:59:20.749Z,3892.00
2017-10-24T12:00:20.717Z,3480.00
2017-10-24T12:01:20.689Z,2980.00
2017-10-24T12:02:41.680Z,3196.00
2017-10-24T12:03:20.645Z,3912.00
2017-10-24T12:04:20.641Z,3796.00
2017-10-24T12:05:20.634Z,3808.00
2017-10-24T12:06:20.613Z,3564.00
2017-10-24T12:07:20.585Z,3144.00
2017-10-24T12:08:41.595Z,2676.00
2017-10-24T12:09:20.553Z,2420.00
2017-10-24T12:10:20.550Z,2160.00
2017-10-24T12:11:20.506Z,2000.00
2017-10-24T12:12:20.486Z,2084.00
2017-10-24T12:13:20.487Z,2304.00
2017-10-24T12:14:41.463Z,2276.00
2017-10-24T12:15:20.435Z,2292.00
2017-10-24T12:16:20.401Z,2448.00
2017-10-24T12:17:20.416Z,2168.00
2017-10-24T12:18:20.374Z,2200.00
2017-10-24T12:19:20.363Z,2404.00
2017-10-24T12:20:41.367Z,2516.00
2017-10-24T12:21:20.316Z,2216.00
2017-10-24T12:22:20.314Z,2036.00
2017-10-24T12:23:20.269Z,1880.00
2017-10-24T12:24:20.258Z,1840.00
2017-10-24T12:25:20.246Z,1804.00
2017-10-24T12:26:41.218Z,1680.00
2017-10-24T12:27:20.211Z,1604.00
2017-10-24T12:28:20.187Z,1552.00
2017-10-24T12:29:20.189Z,1552.00
2017-10-24T12:30:20.180Z,1616.00
2017-10-24T12:31:20.144Z,1716.00
2017-10-24T12:32:41.151Z,1816.00
2017-10-24T12:33:20.138Z,1684.00
2017-10-24T12:34:20.096Z,1512.00
2017-10-24T12:35:20.077Z,1632.00
2017-10-24T12:36:20.042Z,1872.00
2017-10-24T12:37:20.027Z,2016.00
2017-10-24T12:38:41.022Z,1872.00
2017-10-24T12:39:19.995Z,1720.00
2017-10-24T12:40:19.967Z,1884.00
2017-10-24T12:41:19.969Z,1852.00